Station info - map view · info · telemetry · weather · raw · status · beacons · messages · bulletins · browse · moving · my account
Callsign, ship name or locator: Clear       
It is possible to search using wildcards (*?) after a prefix. Example: OH*
APRS station N2WSK-12 - show graphs
Map loading...
Mic-E message: Off duty
Last status: MT-AIO v1.3
Location: 35°15.02' N 82°43.65' W - locator EM85PG20QB - show map - static map
1.2 miles North bearing 18° from Brevard, Transylvania County, North Carolina, United States [?]
8.8 miles Southwest bearing 238° from Etowah, Henderson County, North Carolina, United States
26.1 miles South bearing 202° from Asheville, Buncombe County, North Carolina, United States
83.0 miles Southeast bearing 126° from Knoxville, Knox County, Tennessee, United States
Last position: 2018-10-20 18:41:30 EDT (1d 20h51m ago)
2018-10-20 18:41:30 EDT local time at Brevard, United States [?]
Altitude: 2280 ft
Course: 107°
Last path: N2WSK-12>SUQU0R via N4VDE-3*,WIDE2-1,qAR,SHOJCT (good)
Positions stored: 44966
Stations near current position of N2WSK-12 - show more
callsign distance last heard - EDT      callsign distance last heard - EDT
CW53630.6 miles 308°2018-10-22 15:28:14 KE4DFV-51.6 miles 197°2018-10-22 06:03:14
EW10781.9 miles 193°2018-10-22 15:31:22 FW09594.5 miles 175°2018-10-22 15:30:16
EW33605.1 miles 252°2018-10-22 15:30:38 KD4VIF-16.9 miles 58°2018-10-22 14:37:30
KG4OFO-107.6 miles 73°2018-10-22 15:23:02 W4DK-38.6 miles 47°2018-10-13 12:47:25
W4DK-98.7 miles 47°2018-10-22 15:25:46 W4DK-158.7 miles 47°2018-10-21 23:17:07
FW01378.9 miles 59°2018-10-22 15:16:59 DW34118.9 miles 58°2018-10-22 15:30:50
W4DK-109.4 miles 38°2018-10-22 04:23:01 KM4BLG9.8 miles 303°2018-10-04 16:01:48
W9KGT-710.9 miles 352°2018-10-11 14:36:45 KN4IGK-111.6 miles 139°2018-10-19 16:47:44
N4VDE-311.6 miles 145°2018-10-22 15:26:01 EL-W4NYK11.8 miles 144°2018-10-22 15:32:12
EW105712.6 miles 93°2018-10-22 15:30:06 KD4VIF-512.8 miles 215°2018-10-22 02:15:07
Stations which heard N2WSK-12 directly on radio –
callsign pkts first heard - EDT last heard longest (tx => rx) longest at - EDT
N4VDE-3 3 2018-10-10 01:19:16 2018-10-20 18:41:30 EM85PG > EM85QC 11.6 miles 145° 2018-10-20 18:41:30
KD4CCO 3 2018-10-09 23:03:40 2018-10-09 23:07:39 EM86WP > EM86VP 3.1 miles 265° 2018-10-09 23:03:40
N2MH-15 12 2018-10-09 08:48:04 2018-10-09 09:40:29 FN20VQ > FN20UT 8.7 miles 332° 2018-10-09 08:48:04
N4DSL-3 9 2018-10-09 18:24:28 2018-10-09 18:52:57 FM08QS > FM08PK 24.8 miles 196° 2018-10-09 18:24:28
K4EME-3 7 2018-10-09 18:52:43 2018-10-09 19:17:20 FM08NJ > FM08ID 27.4 miles 234° 2018-10-09 18:52:43
K4FDS-5 1 2018-10-09 20:29:06 2018-10-09 20:29:06 FM07BJ > FM07AG 8.9 miles 188° 2018-10-09 20:29:06
KA2RLM-15 21 2018-10-01 11:31:20 2018-10-09 12:55:28 FN20PC > FN20RJ 22.3 miles 21° 2018-10-09 12:55:28
K2GE-13 8 2018-10-01 11:55:16 2018-10-09 10:10:32 FN20SI > FN20UK 11.4 miles 48° 2018-10-09 08:10:36
NC4HC-15 2 2018-10-10 13:01:08 2018-10-10 13:13:48 EM85RK > EM85TL 10.8 miles 75° 2018-10-10 13:01:08
W3AD-1 1 2018-10-09 14:41:35 2018-10-09 14:41:35 FN10SF > FN10TF 5.3 miles 80° 2018-10-09 14:41:35
KD4BNQ-3 1 2018-10-09 21:15:39 2018-10-09 21:15:39 EM97QC > EM97RI 18.5 miles 9° 2018-10-09 21:15:39
N3XKU-7 1 2018-10-09 13:01:28 2018-10-09 13:01:28 FN20NC > FN20NE 3.6 miles 352° 2018-10-09 13:01:28
KB2EAR-1 3 2018-10-04 16:30:58 2018-10-09 10:00:05 FN20SG > FN20RO 22.5 miles 349° 2018-10-04 16:30:58
HRBGPA 12 2018-10-09 15:21:17 2018-10-09 15:57:08 FN10ID > FN10LH 17.4 miles 56° 2018-10-09 15:57:08
BRISTL 2 2018-10-09 12:57:27 2018-10-09 13:07:27 FN20MD > FN20NC 5.3 miles 113° 2018-10-09 13:07:27
W4FXO-3 1 2018-10-09 23:16:02 2018-10-09 23:16:02 EM86TM > EM86TN 1.1 miles 33° 2018-10-09 23:16:02
KF4YLM-1 27 2018-10-09 20:11:18 2018-10-09 21:58:07 EM96MW > EM97WE 49.6 miles 69° 2018-10-09 21:58:07
MATWAN 29 2018-10-01 10:56:02 2018-10-09 10:20:35 FN20SG > FN20VJ 15.9 miles 56° 2018-10-06 14:54:56
W4DWN-5 1 2018-10-09 22:41:30 2018-10-09 22:41:30 EM96DS > EM96DT 1.3 miles 68° 2018-10-09 22:41:30
KJ4TRN-10 1 2018-10-09 23:28:03 2018-10-09 23:28:03 EM86RK > EM86RI 4.3 miles 165° 2018-10-09 23:28:03
K4MRA-4 2 2018-10-09 18:14:33 2018-10-09 18:30:30 FM08SW > FM08OU 17.9 miles 255° 2018-10-09 18:14:33
K3PDR-3 4 2018-10-09 13:15:27 2018-10-09 13:47:25 FN20GB > FN20JB 16.3 miles 88° 2018-10-09 13:47:25
W2MER 20 2018-10-01 12:02:46 2018-10-09 13:02:17 FN20TH > FN20PG 15.4 miles 258° 2018-10-01 12:02:46
WR4CV-4 1 2018-10-09 19:31:20 2018-10-09 19:31:20 FM07JW > FM07JT 9.6 miles 162° 2018-10-09 19:31:20
WI3Z-1 1 2018-10-09 13:43:25 2018-10-09 13:43:25 FN20HC > FN20HJ 19.8 miles 9° 2018-10-09 13:43:25

Only position packets which were originated by the station are shown here. The range statistics show some extra long hops, because some digipeaters do not correctly add themselves to the digipeater path. Please check the raw packets.
About this site
This page shows real-time information collected from the Automatic Position Reporting System Internet network (APRS-IS). APRS is used by amateur (ham) radio operators to transmit real-time position information, weather data, telemetry and messages over the radio. A vehicle equipped with a GPS receiver, a VHF transmitter or HF transceiver and a small computer device called a tracker transmits it's location, speed and course in a small data packet, which is then received by a nearby iGate receiving site which forwards the packet on the Internet. Systems connected to the Internet can send information on the APRS-IS without a radio transmitter, or collect and display information transmitted anywhere in the world.
FAQ · Blog · Discussion group · Linking to aprs.fi · AIS sites · Service status · Database statistics · Advertising on aprs.fi · Technical details · API · Change log · Planned changes · Credits and thanks · Terms Of Service · iPhone/iPad APRS